createdAt,value
2022-09-28T00:04:19.487Z,76.30
2022-09-28T00:10:18.480Z,77.97
2022-09-28T00:19:47.191Z,76.07
2022-09-28T00:22:14.062Z,77.38
2022-09-28T00:24:41.619Z,76.60
2022-09-28T00:27:09.442Z,78.45
2022-09-28T00:29:37.637Z,76.78
2022-09-28T00:32:09.461Z,76.53
2022-09-28T00:34:39.078Z,76.80
2022-09-28T00:37:08.922Z,76.03
2022-09-28T00:39:37.284Z,76.18
2022-09-28T00:42:11.604Z,77.70
2022-09-28T00:44:41.962Z,76.70
2022-09-28T00:47:43.469Z,78.43
2022-09-28T00:50:20.741Z,77.00
2022-09-28T00:52:53.590Z,76.65
2022-09-28T00:55:27.114Z,77.15
2022-09-28T00:57:58.166Z,76.85
2022-09-28T01:00:27.806Z,76.75
2022-09-28T01:02:58.546Z,76.82
2022-09-28T01:05:28.009Z,76.82
2022-09-28T01:07:57.589Z,76.60
2022-09-28T01:10:25.268Z,76.40
2022-09-28T01:12:52.155Z,76.88
2022-09-28T01:15:21.823Z,77.00
2022-09-28T01:18:03.308Z,80.47
2022-09-28T01:20:56.933Z,77.25
2022-09-28T01:48:53.790Z,76.10
2022-09-28T03:01:25.209Z,76.30
2022-09-28T03:03:59.785Z,76.25
2022-09-28T03:06:33.734Z,76.15
2022-09-28T03:09:05.792Z,76.70
2022-09-28T03:11:40.618Z,76.72
2022-09-28T03:14:07.890Z,76.68
2022-09-28T03:16:47.153Z,76.88
2022-09-28T03:19:16.154Z,76.38
2022-09-28T03:21:43.078Z,77.20
2022-09-28T03:24:11.211Z,76.47
2022-09-28T03:26:38.190Z,76.38
2022-09-28T03:29:06.102Z,76.63
2022-09-28T03:31:33.197Z,77.10
2022-09-28T03:34:01.680Z,76.53
2022-09-28T03:36:28.584Z,76.50
2022-09-28T03:38:56.300Z,76.53
2022-09-28T03:41:24.509Z,76.30
2022-09-28T03:43:51.648Z,76.38
2022-09-28T03:46:18.735Z,77.25
2022-09-28T03:48:49.783Z,76.50
2022-09-28T03:51:18.110Z,76.70
2022-09-28T03:53:45.011Z,76.10
2022-09-28T03:56:14.812Z,75.85
2022-09-28T03:58:42.269Z,75.97
2022-09-28T04:01:16.591Z,76.57
2022-09-28T04:03:45.866Z,78.28
2022-09-28T04:06:13.421Z,76.20
2022-09-28T04:08:43.072Z,76.55
2022-09-28T04:11:10.203Z,76.22
2022-09-28T04:13:37.348Z,76.20
2022-09-28T04:16:06.630Z,75.78
2022-09-28T04:18:35.287Z,75.47
2022-09-28T04:21:21.435Z,76.50
2022-09-28T04:23:55.303Z,75.38
2022-09-28T04:26:24.417Z,75.68
2022-09-28T04:29:10.038Z,75.60
2022-09-28T04:31:42.815Z,75.97
2022-09-28T04:34:10.643Z,76.20
2022-09-28T04:36:37.621Z,75.90
2022-09-28T04:39:05.958Z,75.35
2022-09-28T04:41:33.865Z,75.57
2022-09-28T04:44:01.562Z,76.38
2022-09-28T04:46:28.439Z,75.47
2022-09-28T04:49:14.044Z,75.45
2022-09-28T04:51:48.635Z,75.50
2022-09-28T04:54:17.003Z,76.13
2022-09-28T04:56:43.941Z,75.78
2022-09-28T04:59:11.698Z,75.65
2022-09-28T05:01:40.015Z,75.60
2022-09-28T05:04:26.253Z,75.90
2022-09-28T05:07:07.860Z,75.40
2022-09-28T05:09:38.578Z,82.28
2022-09-28T05:12:05.959Z,75.97
2022-09-28T05:14:32.771Z,76.05
2022-09-28T05:16:59.811Z,75.53
2022-09-28T05:19:44.996Z,75.68
2022-09-28T05:22:14.896Z,76.10
2022-09-28T05:24:47.225Z,77.18
2022-09-28T05:27:14.673Z,74.95
2022-09-28T05:29:43.194Z,75.10
2022-09-28T05:32:25.336Z,75.85
2022-09-28T05:35:06.349Z,75.60
2022-09-28T05:37:45.545Z,75.38
2022-09-28T05:40:13.976Z,75.15
2022-09-28T05:42:41.375Z,75.78
2022-09-28T05:45:09.752Z,75.45
2022-09-28T05:47:38.943Z,75.78
2022-09-28T05:50:08.154Z,75.63
2022-09-28T05:52:35.147Z,76.22
2022-09-28T05:55:03.702Z,75.30
2022-09-28T05:57:32.011Z,75.60
2022-09-28T05:59:59.029Z,75.60
2022-09-28T06:02:28.944Z,75.20
2022-09-28T06:04:55.994Z,75.55
2022-09-28T06:07:23.448Z,75.28
2022-09-28T06:09:50.348Z,76.05
2022-09-28T06:12:38.217Z,75.03
2022-09-28T06:15:11.459Z,76.25
2022-09-28T06:17:38.408Z,76.20
2022-09-28T06:20:43.679Z,76.72
2022-09-28T06:23:17.741Z,86.75
2022-09-28T06:25:44.814Z,75.88
2022-09-28T06:28:14.710Z,76.10
2022-09-28T06:30:42.532Z,76.25
2022-09-28T06:33:14.304Z,76.63
2022-09-28T06:35:41.248Z,76.63
2022-09-28T06:38:08.359Z,76.00
2022-09-28T06:40:35.850Z,75.82
2022-09-28T06:43:10.214Z,75.88
2022-09-28T06:45:57.127Z,76.68
2022-09-28T06:48:45.150Z,76.50
2022-09-28T06:51:19.958Z,77.03
2022-09-28T06:53:57.682Z,75.75
2022-09-28T06:56:39.922Z,76.65
2022-09-28T06:59:06.880Z,76.93
2022-09-28T07:01:36.494Z,78.90
2022-09-28T07:04:11.600Z,76.60
2022-09-28T07:06:54.281Z,77.00
2022-09-28T07:09:44.999Z,76.75
2022-09-28T07:12:41.152Z,77.57
2022-09-28T07:15:27.655Z,77.40
2022-09-28T07:18:02.705Z,77.80
2022-09-28T07:20:32.010Z,78.70
2022-09-28T07:23:12.921Z,78.60
2022-09-28T07:26:07.778Z,77.47
2022-09-28T07:28:55.922Z,78.30
2022-09-28T07:31:33.773Z,80.00
2022-09-28T07:34:39.989Z,80.38
2022-09-28T07:37:26.835Z,80.18
2022-09-28T07:40:12.936Z,82.50
2022-09-28T07:42:39.908Z,84.40
2022-09-28T07:45:08.598Z,84.30
2022-09-28T07:47:35.983Z,82.45
2022-09-28T07:50:13.980Z,82.30
2022-09-28T07:52:57.418Z,82.82
2022-09-28T07:55:51.487Z,82.82
2022-09-28T07:58:35.671Z,83.22
2022-09-28T08:01:31.699Z,82.00
2022-09-28T08:04:00.003Z,82.10
2022-09-28T08:06:30.559Z,82.72
2022-09-28T08:09:00.115Z,83.38
2022-09-28T08:11:46.917Z,85.00
2022-09-28T08:14:35.317Z,86.30
2022-09-28T08:17:15.768Z,84.22
2022-09-28T08:20:04.302Z,91.20
2022-09-28T08:22:33.141Z,89.80
2022-09-28T08:25:01.089Z,89.38
2022-09-28T08:27:29.141Z,88.45
2022-09-28T08:29:56.099Z,90.75
2022-09-28T08:35:26.202Z,86.78
2022-09-28T08:38:11.001Z,84.30
2022-09-28T08:41:05.390Z,82.90
2022-09-28T08:44:02.581Z,82.15
2022-09-28T08:46:51.341Z,83.90
2022-09-28T08:49:47.610Z,86.07
2022-09-28T08:52:39.727Z,86.32
2022-09-28T08:58:04.443Z,88.50
2022-09-28T09:00:39.751Z,90.43
2022-09-28T09:03:12.244Z,88.55
2022-09-28T09:05:51.068Z,89.63
2022-09-28T09:08:50.098Z,89.50
2022-09-28T09:11:32.658Z,89.60
2022-09-28T09:14:15.777Z,86.90
2022-09-28T09:17:00.383Z,86.53
2022-09-28T09:19:53.858Z,86.38
2022-09-28T09:22:39.119Z,87.15
2022-09-28T09:25:18.939Z,86.90
2022-09-28T09:28:15.558Z,87.32
2022-09-28T09:30:52.812Z,86.05
2022-09-28T09:33:47.055Z,86.38
2022-09-28T09:36:47.352Z,87.60
2022-09-28T09:39:42.339Z,83.15
2022-09-28T09:42:55.463Z,82.95
2022-09-28T09:46:03.366Z,82.80
2022-09-28T09:48:45.470Z,82.53
2022-09-28T09:51:20.888Z,81.88
2022-09-28T09:53:52.820Z,81.90
2022-09-28T09:56:26.313Z,82.32
2022-09-28T09:59:20.957Z,82.70
2022-09-28T10:02:12.040Z,83.43
2022-09-28T10:04:53.567Z,92.07
2022-09-28T10:07:33.578Z,86.72
2022-09-28T10:10:02.517Z,94.70
2022-09-28T10:12:44.514Z,110.22
2022-09-28T10:15:16.241Z,121.63
2022-09-28T10:18:16.292Z,128.15
2022-09-28T10:21:02.301Z,130.52
2022-09-28T10:23:39.305Z,134.15
2022-09-28T10:26:15.740Z,131.93
2022-09-28T10:28:48.710Z,114.63
2022-09-28T10:31:37.090Z,115.88
2022-09-28T10:34:10.562Z,107.97
2022-09-28T10:36:50.135Z,120.28
2022-09-28T10:39:29.662Z,107.57
2022-09-28T10:41:59.844Z,103.00
2022-09-28T10:44:32.079Z,113.70
2022-09-28T10:47:17.560Z,113.88
2022-09-28T10:49:49.370Z,124.97
2022-09-28T10:52:31.559Z,136.85
2022-09-28T10:54:58.979Z,146.40
2022-09-28T10:57:29.093Z,154.95
2022-09-28T11:00:06.918Z,143.00
2022-09-28T11:02:56.855Z,128.45
2022-09-28T11:05:30.190Z,121.78
2022-09-28T11:08:00.775Z,123.00
2022-09-28T11:10:34.700Z,122.60
2022-09-28T11:13:12.471Z,107.45
2022-09-28T11:15:44.224Z,104.70
2022-09-28T11:18:25.235Z,98.85
2022-09-28T11:21:11.191Z,97.72
2022-09-28T11:23:41.082Z,97.15
2022-09-28T11:26:19.314Z,96.47
2022-09-28T11:28:51.262Z,98.68
2022-09-28T11:31:28.110Z,95.40
2022-09-28T11:34:06.672Z,90.13
2022-09-28T11:37:01.703Z,89.80
2022-09-28T11:39:40.927Z,88.97
2022-09-28T11:42:17.547Z,87.95
2022-09-28T11:44:48.008Z,87.78
2022-09-28T11:47:50.786Z,91.63
2022-09-28T11:50:28.458Z,88.55
2022-09-28T11:53:09.898Z,85.65
2022-09-28T11:55:42.384Z,85.75
2022-09-28T11:58:14.296Z,86.57
2022-09-28T12:00:46.508Z,88.75
2022-09-28T12:03:18.436Z,88.60
2022-09-28T12:05:52.223Z,88.30
2022-09-28T12:08:25.610Z,90.35
2022-09-28T12:11:20.569Z,91.38
2022-09-28T12:14:12.539Z,88.07
2022-09-28T12:17:05.086Z,90.95
2022-09-28T12:19:38.810Z,89.97
2022-09-28T12:22:16.022Z,92.95
2022-09-28T12:24:47.580Z,98.72
2022-09-28T12:29:48.623Z,89.97
2022-09-28T12:32:26.604Z,82.88
2022-09-28T12:34:53.552Z,82.90
2022-09-28T12:37:54.461Z,82.10
2022-09-28T12:40:37.160Z,82.70
2022-09-28T12:43:21.547Z,82.00
2022-09-28T12:46:11.878Z,82.13
2022-09-28T12:49:21.712Z,81.70
2022-09-28T12:51:48.810Z,86.22
2022-09-28T12:54:34.458Z,87.15
2022-09-28T12:57:18.047Z,86.95
2022-09-28T12:59:56.447Z,87.00
2022-09-28T13:02:39.952Z,88.15
2022-09-28T13:05:40.941Z,88.72
2022-09-28T13:08:13.928Z,88.07
2022-09-28T13:10:46.199Z,90.50
2022-09-28T13:13:26.859Z,88.38
2022-09-28T13:16:02.590Z,98.10
2022-09-28T13:18:35.350Z,87.88
2022-09-28T13:21:25.253Z,87.43
2022-09-28T13:24:00.859Z,88.13
2022-09-28T13:26:38.240Z,89.57
2022-09-28T13:29:11.636Z,89.78
2022-09-28T13:31:51.525Z,90.60
2022-09-28T13:34:22.653Z,95.38
2022-09-28T13:37:09.075Z,91.68
2022-09-28T13:39:46.320Z,95.30
2022-09-28T13:42:46.055Z,92.75
2022-09-28T13:45:48.666Z,93.00
2022-09-28T13:48:48.521Z,92.13
2022-09-28T13:51:31.879Z,90.40
2022-09-28T13:54:02.079Z,91.00
2022-09-28T13:59:58.674Z,90.07
2022-09-28T14:03:05.595Z,90.50
2022-09-28T14:11:54.481Z,89.30
2022-09-28T14:17:54.119Z,88.97
2022-09-28T14:20:26.559Z,87.80
2022-09-28T14:23:12.397Z,85.90
2022-09-28T14:25:43.323Z,86.72
2022-09-28T14:28:30.979Z,86.10
2022-09-28T14:31:00.621Z,91.68
2022-09-28T14:33:33.771Z,85.97
2022-09-28T14:36:05.812Z,85.47
2022-09-28T14:38:54.644Z,85.95
2022-09-28T14:41:29.796Z,85.47
2022-09-28T14:44:08.374Z,85.28
2022-09-28T14:46:44.296Z,85.60
2022-09-28T14:49:40.059Z,85.50
2022-09-28T14:52:13.472Z,87.13
2022-09-28T14:54:53.953Z,88.97
2022-09-28T14:57:25.212Z,84.90
2022-09-28T14:59:52.456Z,84.45
2022-09-28T15:02:24.748Z,83.88
2022-09-28T15:04:55.210Z,85.63
2022-09-28T15:07:26.767Z,83.68
2022-09-28T15:12:26.248Z,85.35
2022-09-28T15:14:56.357Z,83.40
2022-09-28T15:17:26.731Z,83.10
2022-09-28T15:20:24.089Z,84.57
2022-09-28T15:22:58.845Z,83.82
2022-09-28T15:25:27.253Z,83.97
2022-09-28T15:27:56.341Z,82.30
2022-09-28T15:30:28.542Z,82.05
2022-09-28T15:36:16.132Z,84.93
2022-09-28T15:38:56.795Z,83.63
2022-09-28T15:41:24.991Z,83.97
2022-09-28T15:47:15.887Z,94.43
2022-09-28T15:52:52.860Z,93.30
2022-09-28T15:55:24.724Z,94.97
2022-09-28T15:58:07.573Z,97.38
2022-09-28T16:00:35.525Z,94.20
2022-09-28T16:03:19.048Z,97.53
2022-09-28T16:05:49.087Z,97.18
2022-09-28T16:08:22.121Z,98.35
2022-09-28T16:10:57.556Z,106.75
2022-09-28T16:13:25.055Z,90.20
2022-09-28T16:15:58.142Z,90.18
2022-09-28T16:18:26.703Z,102.00
2022-09-28T16:20:56.170Z,107.32
2022-09-28T16:23:26.978Z,104.65
2022-09-28T16:25:58.956Z,96.60
2022-09-28T16:28:52.139Z,96.82
2022-09-28T16:31:33.669Z,101.13
2022-09-28T16:36:45.302Z,94.28
2022-09-28T16:39:12.849Z,94.57
2022-09-28T16:41:44.193Z,94.43
2022-09-28T16:44:17.799Z,93.70
2022-09-28T16:46:45.672Z,93.00
2022-09-28T16:49:18.880Z,88.53
2022-09-28T16:51:47.214Z,89.32
2022-09-28T16:54:35.144Z,90.30
2022-09-28T16:57:05.676Z,88.43
2022-09-28T16:59:32.973Z,84.28
2022-09-28T17:02:00.343Z,86.30
2022-09-28T17:04:27.473Z,87.88
2022-09-28T17:06:56.028Z,86.63
2022-09-28T17:09:23.382Z,81.60
2022-09-28T17:11:56.893Z,81.25
2022-09-28T17:14:25.461Z,85.55
2022-09-28T17:17:12.652Z,84.20
2022-09-28T17:19:41.180Z,85.55
2022-09-28T17:22:08.448Z,82.85
2022-09-28T17:24:35.271Z,83.00
2022-09-28T17:27:03.366Z,83.78
2022-09-28T17:29:32.653Z,84.63
2022-09-28T17:31:59.584Z,90.18
2022-09-28T17:34:26.503Z,93.15
2022-09-28T17:36:53.568Z,93.00
2022-09-28T17:39:20.597Z,92.45
2022-09-28T17:41:47.658Z,95.07
2022-09-28T17:44:16.109Z,98.80
2022-09-28T17:46:48.447Z,93.10
2022-09-28T17:49:15.910Z,93.05
2022-09-28T17:51:42.794Z,87.45
2022-09-28T17:54:09.778Z,87.88
2022-09-28T17:56:36.920Z,84.57
2022-09-28T17:59:05.512Z,84.18
2022-09-28T18:01:35.911Z,82.88
2022-09-28T18:04:06.633Z,82.63
2022-09-28T18:06:34.371Z,83.47
2022-09-28T18:09:02.864Z,85.85
2022-09-28T18:11:29.993Z,92.05
2022-09-28T18:13:56.847Z,97.20
2022-09-28T18:16:23.948Z,97.72
2022-09-28T18:18:50.858Z,99.22
2022-09-28T18:21:19.851Z,102.28
2022-09-28T18:23:46.698Z,103.15
2022-09-28T18:26:15.172Z,95.22
2022-09-28T18:28:42.216Z,106.60
2022-09-28T18:31:10.712Z,105.88
2022-09-28T18:33:38.504Z,106.65
2022-09-28T18:36:06.779Z,100.10
2022-09-28T18:38:37.020Z,112.25
2022-09-28T18:41:08.488Z,123.90
2022-09-28T18:43:36.473Z,93.03
2022-09-28T18:46:08.104Z,92.22
2022-09-28T18:48:35.991Z,98.22
2022-09-28T18:51:03.148Z,96.00
2022-09-28T18:53:33.319Z,95.25
2022-09-28T18:56:06.031Z,95.88
2022-09-28T18:58:34.855Z,96.95
2022-09-28T19:01:28.311Z,97.60
2022-09-28T19:03:53.928Z,95.68
2022-09-28T19:06:20.845Z,84.03
2022-09-28T19:08:52.358Z,91.00
2022-09-28T19:11:20.596Z,96.43
2022-09-28T19:13:47.564Z,91.45
2022-09-28T19:16:20.823Z,92.22
2022-09-28T19:18:48.751Z,90.97
2022-09-28T19:21:15.933Z,91.43
2022-09-28T19:23:49.836Z,95.13
2022-09-28T19:26:18.898Z,89.15
2022-09-28T19:28:47.739Z,91.63
2022-09-28T19:31:14.820Z,90.97
2022-09-28T19:33:41.935Z,90.80
2022-09-28T19:36:11.866Z,89.05
2022-09-28T19:38:40.157Z,89.03
2022-09-28T19:41:10.974Z,88.95
2022-09-28T19:43:38.344Z,92.95
2022-09-28T19:46:07.141Z,89.10
2022-09-28T19:48:35.390Z,88.32
2022-09-28T19:51:05.092Z,86.53
2022-09-28T19:53:36.637Z,88.30
2022-09-28T19:56:05.608Z,86.15
2022-09-28T19:58:35.373Z,83.25
2022-09-28T20:01:07.085Z,86.47
2022-09-28T20:06:01.864Z,91.10
2022-09-28T20:08:30.134Z,87.45
2022-09-28T20:10:59.597Z,86.10
2022-09-28T20:13:31.901Z,87.28
2022-09-28T20:16:03.390Z,88.22
2022-09-28T20:18:35.056Z,88.55
2022-09-28T20:21:03.267Z,82.20
2022-09-28T20:23:31.042Z,88.68
2022-09-28T20:25:58.197Z,95.97
2022-09-28T20:28:25.314Z,90.40
2022-09-28T20:30:52.505Z,90.57
2022-09-28T20:33:28.574Z,89.65
2022-09-28T20:35:57.865Z,90.07
2022-09-28T20:38:24.767Z,101.13
2022-09-28T20:40:51.636Z,95.80
2022-09-28T20:43:19.081Z,113.57
2022-09-28T20:45:46.005Z,123.40
2022-09-28T20:48:12.829Z,131.35
2022-09-28T20:50:41.307Z,110.05
2022-09-28T20:53:09.546Z,110.70
2022-09-28T20:55:36.383Z,131.93
2022-09-28T20:58:04.244Z,108.22
2022-09-28T21:00:31.294Z,107.15
2022-09-28T21:02:58.129Z,115.68
2022-09-28T21:05:25.035Z,112.22
2022-09-28T21:07:51.856Z,107.20
2022-09-28T21:10:20.106Z,108.20
2022-09-28T21:12:50.250Z,117.25
2022-09-28T21:15:17.110Z,114.10
2022-09-28T21:17:44.025Z,114.30
2022-09-28T21:20:10.968Z,95.03
2022-09-28T21:22:37.817Z,95.75
2022-09-28T21:25:05.356Z,94.80
2022-09-28T21:27:34.024Z,93.88
2022-09-28T21:30:03.045Z,94.78
2022-09-28T21:32:29.895Z,91.60
2022-09-28T21:34:56.770Z,96.18
2022-09-28T21:37:23.781Z,95.43
2022-09-28T21:39:50.587Z,93.63
2022-09-28T21:42:17.416Z,95.13
2022-09-28T21:44:45.642Z,97.93
2022-09-28T21:47:12.509Z,100.32
2022-09-28T21:49:39.353Z,108.47
2022-09-28T21:52:06.222Z,117.38
2022-09-28T21:54:37.190Z,115.50
2022-09-28T21:57:04.220Z,108.97
2022-09-28T21:59:31.326Z,88.93
2022-09-28T22:01:59.530Z,96.68
2022-09-28T22:04:26.685Z,103.85
2022-09-28T22:06:53.527Z,119.63
2022-09-28T22:09:20.349Z,116.55
2022-09-28T22:11:49.039Z,101.88
2022-09-28T22:14:15.897Z,102.55
2022-09-28T22:16:43.107Z,105.07
2022-09-28T22:19:11.342Z,108.22
2022-09-28T22:21:39.028Z,113.60
2022-09-28T22:24:07.147Z,133.25
2022-09-28T22:26:35.937Z,133.30
2022-09-28T22:29:05.595Z,137.10
2022-09-28T22:31:34.584Z,131.48
2022-09-28T22:34:01.955Z,146.98
2022-09-28T22:36:30.690Z,113.68
2022-09-28T22:38:58.661Z,117.18
2022-09-28T22:41:26.262Z,118.47
2022-09-28T22:43:54.845Z,115.40
2022-09-28T22:46:23.811Z,117.68
2022-09-28T22:48:52.749Z,124.65
2022-09-28T22:51:20.422Z,126.75
2022-09-28T22:53:49.014Z,153.73
2022-09-28T22:56:18.778Z,141.73
2022-09-28T22:58:47.211Z,155.13
2022-09-28T23:01:17.335Z,178.98
2022-09-28T23:03:44.924Z,84.95
2022-09-28T23:06:14.073Z,95.55
2022-09-28T23:08:41.042Z,102.85
2022-09-28T23:11:09.374Z,102.57
2022-09-28T23:13:37.616Z,105.03
2022-09-28T23:16:06.107Z,104.82
2022-09-28T23:18:36.349Z,105.43
2022-09-28T23:21:05.722Z,104.93
2022-09-28T23:23:33.368Z,106.95
2022-09-28T23:26:01.260Z,107.63
2022-09-28T23:28:30.007Z,108.85
2022-09-28T23:30:56.867Z,109.63
2022-09-28T23:33:23.753Z,109.28
2022-09-28T23:35:51.167Z,110.60
2022-09-28T23:38:18.487Z,110.25
2022-09-28T23:40:46.339Z,110.82
2022-09-28T23:43:14.276Z,109.18
2022-09-28T23:45:44.046Z,118.22
2022-09-28T23:48:10.972Z,125.85
2022-09-28T23:50:37.772Z,180.48
2022-09-28T23:53:05.624Z,101.35
2022-09-28T23:55:32.546Z,108.43
2022-09-28T23:57:59.423Z,117.47
